Impacts TAF Board INFO
FOR SITUATIONAL AWARENESS. NOT TO BE USED FOR FLIGHT PLANNING PURPOSES.
IDs:

KCLE - Cleveland/Hopkins In, OH, US

Issued at 0300 UTC 22 Nov 2017
Updated at 0351 UTC 22 Nov 2017
Potential Impact None Slight Moderate High
Time0251Z 22/04Z 22/05Z 22/06Z 22/07Z 22/08Z 22/09Z 22/10Z 22/11Z 22/12Z 22/13Z 22/14Z 22/15Z 22/16Z>>
Type OBS PRVL
  [TEMP]  
PRVL PRVL PRVL PRVL PRVL PRVL PRVL PRVL PRVL PRVL PRVL PRVL
VIS 10 >6
  [5]  
>6 >6 >6 >6 >6 >6 >6 >6 >6 >6 >6 >6
CIG 12 25
  [15]  
35 35 35 50 50 50 50 50 50 50 -- --
Cover OVC OVC
  [OVC]  
OVC OVC OVC BKN BKN BKN BKN BKN BKN BKN SCT SCT
FltCat MVFR MVFR
  [MVFR]  
VFR VFR VFR VFR VFR VFR VFR VFR VFR VFR VFR VFR
WX -RA --
  [-SHRA]  
-SHSN -SHSN -SHSN -- -- -- -- -- -- -- -- --
WDir 300 290
[290]
300 300 300 300 300 300 300 300 300 300 310 310
WSpd 15 12
  [12]  
10 10 10 10 10 10 10 10 10 10 8 8
WGst -- 20
  [20]  
18 18 18 -- -- -- -- -- -- -- -- --

Raw TAF
KCLE 220300Z 2203/2306 29012G20KT P6SM OVC025
  TEMPO 2203/2205 5SM -SHRA OVC015
  FM220500 30010G18KT P6SM -SHSN OVC035
  FM220800 30010KT P6SM BKN050
  FM221500 31008KT P6SM SCT050


Raw METAR
KCLE 220251Z 30015KT 10SM -RA OVC012 05/03 A2998 RMK AO2 RAB12 SLP157 P0001 60001 T00500028 53024
KCLE 220208Z 31018G21KT 10SM BKN014 BKN045 OVC050 07/03 A2997 RMK AO2 T00670033
KCLE 220151Z 30015KT 10SM OVC042 07/03 A2996 RMK AO2 SLP149 T00720028
KCLE 220051Z 26013KT 10SM OVC050 09/02 A2993 RMK AO2 SLP139 T00940017

METAR Board
Radar Display
Forecast Discussion

FOR SITUATIONAL AWARENESS. NOT TO BE USED FOR FLIGHT PLANNING PURPOSES.